createdAt,value
2022-08-07T00:01:44.686Z,19.52
2022-08-07T00:04:09.453Z,19.48
2022-08-07T00:06:41.126Z,19.45
2022-08-07T00:09:21.073Z,19.41
2022-08-07T00:11:55.774Z,19.38
2022-08-07T00:14:31.388Z,19.35
2022-08-07T00:17:02.569Z,19.31
2022-08-07T00:20:00.295Z,19.28
2022-08-07T00:22:24.415Z,19.25
2022-08-07T00:25:07.388Z,19.23
2022-08-07T00:27:53.274Z,19.15
2022-08-07T00:30:28.145Z,19.07
2022-08-07T00:32:58.030Z,19.02
2022-08-07T00:35:25.885Z,18.99
2022-08-07T00:37:53.454Z,18.95
2022-08-07T00:40:39.210Z,18.93
2022-08-07T00:43:59.857Z,18.93
2022-08-07T00:46:01.743Z,18.90
2022-08-07T00:48:32.027Z,18.87
2022-08-07T00:50:59.721Z,18.85
2022-08-07T00:53:39.404Z,18.81
2022-08-07T00:56:15.958Z,18.77
2022-08-07T00:58:46.580Z,18.73
2022-08-07T01:01:15.264Z,18.71
2022-08-07T01:03:56.150Z,18.70
2022-08-07T01:06:27.240Z,18.66
2022-08-07T01:08:55.693Z,18.64
2022-08-07T01:12:08.933Z,18.60
2022-08-07T01:14:11.933Z,18.51
2022-08-07T01:16:46.868Z,18.45
2022-08-07T01:19:19.295Z,18.41
2022-08-07T01:21:53.204Z,18.38
2022-08-07T01:24:27.538Z,18.36
2022-08-07T01:26:57.538Z,18.35
2022-08-07T01:29:27.640Z,18.33
2022-08-07T01:31:59.465Z,18.32
2022-08-07T01:34:31.489Z,18.30
2022-08-07T01:37:01.789Z,18.27
2022-08-07T01:39:41.265Z,18.23
2022-08-07T01:42:40.249Z,18.18
2022-08-07T01:45:18.162Z,18.14
2022-08-07T01:48:19.977Z,18.12
2022-08-07T01:50:43.260Z,18.08
2022-08-07T01:53:21.697Z,18.05
2022-08-07T01:56:17.340Z,18.01
2022-08-07T01:58:52.365Z,17.98
2022-08-07T02:02:01.915Z,17.95
2022-08-07T02:04:52.560Z,17.93
2022-08-07T02:07:44.803Z,17.92
2022-08-07T02:10:23.945Z,17.89
2022-08-07T02:13:16.501Z,17.82
2022-08-07T02:15:50.571Z,17.81
2022-08-07T02:18:21.486Z,17.79
2022-08-07T02:20:57.279Z,17.77
2022-08-07T02:23:28.497Z,17.75
2022-08-07T02:26:31.973Z,17.71
2022-08-07T02:28:45.625Z,17.61
2022-08-07T02:31:28.228Z,17.56
2022-08-07T02:34:03.626Z,17.52
2022-08-07T02:36:42.488Z,17.46
2022-08-07T02:39:43.324Z,17.40
2022-08-07T02:42:09.885Z,17.36
2022-08-07T02:44:48.239Z,17.33
2022-08-07T02:47:19.179Z,17.28
2022-08-07T02:49:58.784Z,17.25
2022-08-07T02:52:38.629Z,17.24
2022-08-07T02:55:15.246Z,17.24
2022-08-07T02:57:59.833Z,17.25
2022-08-07T03:00:30.242Z,17.25
2022-08-07T03:03:00.094Z,17.27
2022-08-07T03:05:37.831Z,17.28
2022-08-07T03:08:10.283Z,17.27
2022-08-07T03:10:46.946Z,17.23
2022-08-07T03:13:20.139Z,17.15
2022-08-07T03:15:56.406Z,17.11
2022-08-07T03:18:34.892Z,17.10
2022-08-07T03:21:08.851Z,17.07
2022-08-07T03:24:18.997Z,17.05
2022-08-07T03:26:33.081Z,17.05
2022-08-07T03:29:10.535Z,17.01
2022-08-07T03:31:42.895Z,17.01
2022-08-07T03:34:18.783Z,17.01
2022-08-07T03:36:53.745Z,17.01
2022-08-07T03:39:45.891Z,17.01
2022-08-07T03:42:12.283Z,17.01
2022-08-07T03:44:42.870Z,17.00
2022-08-07T03:47:19.241Z,17.00
2022-08-07T03:49:52.503Z,16.98
2022-08-07T03:52:27.249Z,16.96
2022-08-07T03:55:07.461Z,16.93
2022-08-07T03:59:05.011Z,16.86
2022-08-07T04:00:33.398Z,16.75
2022-08-07T04:03:06.909Z,16.70
2022-08-07T04:05:40.872Z,16.66
2022-08-07T04:08:16.299Z,16.63
2022-08-07T04:10:54.228Z,16.63
2022-08-07T04:14:33.187Z,16.62
2022-08-07T04:16:33.512Z,16.62
2022-08-07T04:19:12.563Z,16.64
2022-08-07T04:21:59.700Z,16.64
2022-08-07T04:24:41.734Z,16.66
2022-08-07T04:27:20.341Z,16.66
2022-08-07T04:30:01.963Z,16.67
2022-08-07T04:32:58.399Z,16.67
2022-08-07T04:35:34.976Z,16.67
2022-08-07T04:38:07.782Z,16.66
2022-08-07T04:40:52.088Z,16.63
2022-08-07T04:44:13.231Z,16.50
2022-08-07T04:46:29.490Z,16.39
2022-08-07T04:49:25.647Z,16.30
2022-08-07T04:52:28.254Z,16.24
2022-08-07T04:58:12.483Z,16.18
2022-08-07T04:58:31.630Z,16.19
2022-08-07T05:01:18.371Z,16.25
2022-08-07T05:04:08.647Z,16.29
2022-08-07T05:06:53.465Z,16.32
2022-08-07T05:09:45.455Z,16.35
2022-08-07T05:12:26.952Z,16.37
2022-08-07T05:15:23.256Z,16.38
2022-08-07T05:18:09.206Z,16.43
2022-08-07T05:20:48.032Z,16.48
2022-08-07T05:23:42.147Z,16.53
2022-08-07T05:26:24.103Z,16.60
2022-08-07T05:28:59.313Z,16.64
2022-08-07T05:31:37.785Z,16.68
2022-08-07T05:34:12.317Z,16.70
2022-08-07T05:36:44.697Z,16.78
2022-08-07T05:40:17.950Z,16.81
2022-08-07T05:42:34.747Z,16.84
2022-08-07T05:45:14.331Z,16.87
2022-08-07T05:48:02.095Z,16.92
2022-08-07T05:50:34.189Z,16.96
2022-08-07T05:53:04.222Z,17.06
2022-08-07T05:56:02.761Z,17.09
2022-08-07T05:58:36.403Z,17.14
2022-08-07T06:01:11.321Z,17.19
2022-08-07T06:03:57.055Z,17.25
2022-08-07T06:06:36.327Z,17.35
2022-08-07T06:09:08.841Z,17.43
2022-08-07T06:11:41.405Z,17.53
2022-08-07T06:14:11.418Z,17.61
2022-08-07T06:16:50.459Z,17.69
2022-08-07T06:19:47.938Z,17.77
2022-08-07T06:22:22.808Z,17.90
2022-08-07T06:25:01.063Z,18.04
2022-08-07T06:27:44.296Z,18.17
2022-08-07T06:30:31.957Z,18.33
2022-08-07T06:33:15.774Z,18.54
2022-08-07T06:36:06.593Z,18.71
2022-08-07T06:38:32.555Z,18.85
2022-08-07T06:41:06.935Z,18.96
2022-08-07T06:43:46.541Z,19.12
2022-08-07T06:46:31.313Z,19.29
2022-08-07T06:49:03.927Z,19.52
2022-08-07T06:51:35.902Z,19.73
2022-08-07T06:55:31.764Z,19.89
2022-08-07T06:57:08.029Z,20.06
2022-08-07T07:00:12.996Z,20.21
2022-08-07T07:02:53.354Z,20.44
2022-08-07T07:06:02.462Z,20.68
2022-08-07T07:08:06.818Z,20.92
2022-08-07T07:10:35.555Z,21.09
2022-08-07T07:13:17.100Z,21.20
2022-08-07T07:16:11.558Z,21.36
2022-08-07T07:18:48.225Z,21.57
2022-08-07T07:21:19.552Z,21.77
2022-08-07T07:24:10.219Z,21.97
2022-08-07T07:26:40.675Z,22.13
2022-08-07T07:29:57.172Z,22.25
2022-08-07T07:32:05.731Z,22.36
2022-08-07T07:34:44.235Z,22.42
2022-08-07T07:37:22.081Z,22.52
2022-08-07T07:40:14.719Z,22.72
2022-08-07T07:42:47.027Z,22.92
2022-08-07T07:46:37.036Z,23.06
2022-08-07T07:48:35.948Z,23.23
2022-08-07T07:51:08.229Z,23.34
2022-08-07T07:53:52.060Z,23.43
2022-08-07T07:56:30.036Z,23.54
2022-08-07T07:58:59.776Z,23.68
2022-08-07T08:02:05.243Z,23.82
2022-08-07T08:04:17.386Z,23.98
2022-08-07T08:06:52.045Z,24.15
2022-08-07T08:09:24.192Z,24.35
2022-08-07T08:12:02.837Z,24.50
2022-08-07T08:14:34.230Z,24.58
2022-08-07T08:17:32.400Z,24.74
2022-08-07T08:20:18.487Z,24.91
2022-08-07T08:23:08.439Z,25.08
2022-08-07T08:25:56.433Z,25.14
2022-08-07T08:28:37.327Z,25.33
2022-08-07T08:31:15.613Z,25.55
2022-08-07T08:33:49.337Z,25.73
2022-08-07T08:36:18.501Z,25.89
2022-08-07T08:38:54.355Z,25.99
2022-08-07T08:41:59.513Z,26.01
2022-08-07T08:44:52.935Z,26.06
2022-08-07T08:47:28.108Z,26.20
2022-08-07T08:50:34.743Z,26.32
2022-08-07T08:53:19.260Z,26.54
2022-08-07T08:55:59.060Z,26.72
2022-08-07T08:58:54.534Z,26.94
2022-08-07T09:01:49.049Z,27.14
2022-08-07T09:04:43.500Z,27.20
2022-08-07T09:07:25.162Z,27.21
2022-08-07T09:10:17.550Z,27.13
2022-08-07T09:13:20.095Z,27.16
2022-08-07T09:16:35.193Z,27.21
2022-08-07T09:19:51.837Z,27.21
2022-08-07T09:24:28.153Z,27.27
2022-08-07T09:25:14.797Z,27.33
2022-08-07T09:30:03.182Z,27.37
2022-08-07T09:31:08.487Z,27.38
2022-08-07T09:33:56.781Z,27.42
2022-08-07T09:36:36.894Z,27.41
2022-08-07T09:39:11.439Z,27.43
2022-08-07T09:42:32.935Z,27.60
2022-08-07T09:47:23.538Z,27.88
2022-08-07T09:48:21.126Z,27.96
2022-08-07T09:52:15.800Z,27.90
2022-08-07T09:54:39.016Z,27.78
2022-08-07T09:57:37.463Z,27.69
2022-08-07T10:00:16.470Z,27.65
2022-08-07T10:03:08.553Z,27.58
2022-08-07T10:06:11.942Z,27.49
2022-08-07T10:09:06.945Z,27.56
2022-08-07T10:12:02.143Z,27.68
2022-08-07T10:14:58.203Z,27.78
2022-08-07T10:18:03.091Z,27.90
2022-08-07T10:20:51.946Z,28.02
2022-08-07T10:24:06.304Z,28.13
2022-08-07T10:26:37.178Z,28.23
2022-08-07T10:29:25.553Z,28.34
2022-08-07T10:32:52.428Z,28.31
2022-08-07T10:35:56.280Z,28.33
2022-08-07T10:38:51.845Z,28.24
2022-08-07T10:41:52.339Z,28.12
2022-08-07T10:44:39.801Z,28.05
2022-08-07T10:47:26.838Z,28.03
2022-08-07T10:50:32.434Z,28.08
2022-08-07T10:53:21.249Z,28.20
2022-08-07T10:56:11.197Z,28.30
2022-08-07T10:59:37.426Z,28.51
2022-08-07T11:02:38.093Z,28.54
2022-08-07T11:05:48.868Z,28.52
2022-08-07T11:08:33.033Z,28.57
2022-08-07T11:11:03.862Z,28.67
2022-08-07T11:14:43.504Z,28.75
2022-08-07T11:16:39.290Z,28.89
2022-08-07T11:19:21.613Z,28.98
2022-08-07T11:22:27.300Z,29.08
2022-08-07T11:25:18.082Z,29.17
2022-08-07T11:28:07.540Z,29.13
2022-08-07T11:30:58.517Z,29.21
2022-08-07T11:33:59.852Z,29.36
2022-08-07T11:36:49.820Z,29.45
2022-08-07T11:39:39.798Z,29.57
2022-08-07T11:42:29.655Z,29.75
2022-08-07T11:45:23.623Z,29.96
2022-08-07T11:47:59.559Z,30.00
2022-08-07T11:50:36.193Z,30.00
2022-08-07T11:53:43.406Z,29.99
2022-08-07T11:56:45.232Z,30.00
2022-08-07T12:00:10.534Z,29.87
2022-08-07T12:03:02.560Z,29.63
2022-08-07T12:05:48.918Z,29.50
2022-08-07T12:08:38.195Z,29.48
2022-08-07T12:11:21.073Z,29.48
2022-08-07T12:14:16.370Z,29.62
2022-08-07T12:16:56.147Z,29.78
2022-08-07T12:20:03.145Z,29.93
2022-08-07T12:23:09.387Z,30.19
2022-08-07T12:26:05.759Z,30.32
2022-08-07T12:28:56.734Z,30.33
2022-08-07T12:32:02.115Z,30.31
2022-08-07T12:34:39.451Z,30.35
2022-08-07T12:37:16.898Z,30.48
2022-08-07T12:39:58.816Z,30.63
2022-08-07T12:42:32.007Z,30.66
2022-08-07T12:45:11.866Z,30.71
2022-08-07T12:47:56.986Z,30.79
2022-08-07T12:50:49.089Z,30.90
2022-08-07T12:53:17.821Z,30.99
2022-08-07T12:56:12.308Z,31.05
2022-08-07T12:58:46.816Z,31.13
2022-08-07T13:01:32.470Z,31.11
2022-08-07T13:04:13.624Z,31.09
2022-08-07T13:08:14.158Z,31.03
2022-08-07T13:10:39.268Z,31.04
2022-08-07T13:13:47.278Z,31.07
2022-08-07T13:16:41.561Z,31.13
2022-08-07T13:19:28.836Z,31.12
2022-08-07T13:22:27.675Z,31.14
2022-08-07T13:25:10.633Z,31.23
2022-08-07T13:28:12.864Z,31.38
2022-08-07T13:30:48.982Z,31.47
2022-08-07T13:34:33.313Z,31.57
2022-08-07T13:36:35.365Z,31.64
2022-08-07T13:40:32.944Z,31.64
2022-08-07T13:42:26.934Z,31.73
2022-08-07T13:46:06.224Z,31.80
2022-08-07T13:48:06.922Z,31.90
2022-08-07T13:50:44.521Z,32.02
2022-08-07T13:53:26.651Z,32.05
2022-08-07T13:56:36.134Z,32.09
2022-08-07T13:59:31.547Z,31.97
2022-08-07T14:02:12.703Z,32.03
2022-08-07T14:04:50.373Z,32.09
2022-08-07T14:07:24.554Z,32.15
2022-08-07T14:10:02.819Z,32.27
2022-08-07T14:13:01.570Z,32.36
2022-08-07T14:15:31.846Z,32.41
2022-08-07T14:18:23.522Z,32.42
2022-08-07T14:21:20.651Z,32.43
2022-08-07T14:24:02.191Z,32.47
2022-08-07T14:26:50.591Z,32.53
2022-08-07T14:30:05.847Z,32.58
2022-08-07T14:32:12.696Z,32.56
2022-08-07T14:34:47.213Z,32.48
2022-08-07T14:37:18.046Z,32.45
2022-08-07T14:40:17.213Z,32.48
2022-08-07T14:43:00.621Z,32.48
2022-08-07T14:45:48.675Z,32.43
2022-08-07T14:48:20.398Z,32.34
2022-08-07T14:50:56.247Z,32.26
2022-08-07T14:54:05.580Z,32.15
2022-08-07T14:56:30.172Z,32.03
2022-08-07T14:59:02.124Z,31.98
2022-08-07T15:01:42.558Z,32.02
2022-08-07T15:04:16.872Z,32.05
2022-08-07T15:06:47.963Z,32.02
2022-08-07T15:09:57.973Z,31.95
2022-08-07T15:15:09.207Z,31.90
2022-08-07T15:21:58.659Z,31.83
2022-08-07T15:25:14.122Z,31.80
2022-08-07T15:27:09.955Z,31.80
2022-08-07T15:30:08.800Z,31.74
2022-08-07T15:32:39.412Z,31.72
2022-08-07T15:38:29.785Z,31.61
2022-08-07T15:41:24.017Z,31.58
2022-08-07T15:44:01.281Z,31.49
2022-08-07T15:50:04.196Z,31.25
2022-08-07T15:52:30.022Z,31.18
2022-08-07T15:55:03.661Z,31.07
2022-08-07T15:57:39.807Z,31.02
2022-08-07T16:00:32.134Z,30.94
2022-08-07T16:03:21.706Z,30.85
2022-08-07T16:05:58.910Z,30.71
2022-08-07T16:08:37.807Z,30.65
2022-08-07T16:11:27.049Z,30.56
2022-08-07T16:14:39.556Z,30.50
2022-08-07T16:18:02.525Z,30.39
2022-08-07T16:20:34.133Z,30.20
2022-08-07T16:23:53.689Z,30.04
2022-08-07T16:26:30.533Z,29.87
2022-08-07T16:30:08.412Z,29.73
2022-08-07T16:32:01.463Z,29.62
2022-08-07T16:34:41.466Z,29.54
2022-08-07T16:38:05.267Z,29.50
2022-08-07T16:41:01.665Z,29.42
2022-08-07T16:44:03.787Z,29.30
2022-08-07T16:47:05.611Z,29.20
2022-08-07T16:50:28.506Z,29.10
2022-08-07T16:54:02.413Z,29.02
2022-08-07T16:56:19.143Z,28.95
2022-08-07T16:59:10.747Z,28.86
2022-08-07T17:02:09.018Z,28.76
2022-08-07T17:05:00.531Z,28.65
2022-08-07T17:07:55.953Z,28.58
2022-08-07T17:10:32.889Z,28.52
2022-08-07T17:14:02.190Z,28.45
2022-08-07T17:16:55.735Z,28.49
2022-08-07T17:20:02.567Z,28.45
2022-08-07T17:23:11.576Z,28.40
2022-08-07T17:26:24.160Z,28.34
2022-08-07T17:29:09.640Z,28.31
2022-08-07T17:32:31.087Z,28.31
2022-08-07T17:35:51.369Z,28.29
2022-08-07T17:38:33.361Z,28.25
2022-08-07T17:42:02.041Z,28.18
2022-08-07T17:44:33.874Z,28.09
2022-08-07T17:47:08.493Z,28.00
2022-08-07T17:49:56.695Z,27.88
2022-08-07T17:52:49.319Z,27.77
2022-08-07T17:56:00.635Z,27.69
2022-08-07T17:58:51.109Z,27.59
2022-08-07T18:01:30.546Z,27.54
2022-08-07T18:04:31.260Z,27.46
2022-08-07T18:07:34.602Z,27.39
2022-08-07T18:10:32.444Z,27.36
2022-08-07T18:13:10.766Z,27.34
2022-08-07T18:16:32.837Z,27.26
2022-08-07T18:21:09.613Z,27.15
2022-08-07T18:22:15.105Z,27.08
2022-08-07T18:24:53.686Z,27.02
2022-08-07T18:27:38.828Z,26.93
2022-08-07T18:30:31.609Z,26.88
2022-08-07T18:33:16.414Z,26.88
2022-08-07T18:36:06.081Z,26.83
2022-08-07T18:40:08.912Z,26.73
2022-08-07T18:42:38.098Z,26.64
2022-08-07T18:45:44.923Z,26.55
2022-08-07T18:50:05.434Z,26.47
2022-08-07T18:52:34.000Z,26.44
2022-08-07T18:54:30.568Z,26.38
2022-08-07T18:57:29.847Z,26.34
2022-08-07T19:00:04.171Z,26.31
2022-08-07T19:03:15.804Z,26.22
2022-08-07T19:06:05.141Z,26.15
2022-08-07T19:08:50.442Z,26.09
2022-08-07T19:11:35.874Z,26.02
2022-08-07T19:14:20.393Z,25.93
2022-08-07T19:17:07.686Z,25.86
2022-08-07T19:19:48.764Z,25.78
2022-08-07T19:22:31.196Z,25.69
2022-08-07T19:25:05.770Z,25.62
2022-08-07T19:30:55.673Z,25.55
2022-08-07T19:31:00.137Z,25.47
2022-08-07T19:33:33.643Z,25.41
2022-08-07T19:36:04.060Z,25.31
2022-08-07T19:38:52.705Z,25.23
2022-08-07T19:41:39.134Z,25.15
2022-08-07T19:44:21.924Z,25.10
2022-08-07T19:47:00.889Z,25.02
2022-08-07T19:49:58.045Z,24.96
2022-08-07T19:52:22.647Z,24.88
2022-08-07T19:54:58.155Z,24.79
2022-08-07T19:58:00.227Z,24.67
2022-08-07T20:00:29.106Z,24.58
2022-08-07T20:03:05.798Z,24.52
2022-08-07T20:06:03.477Z,24.42
2022-08-07T20:08:34.420Z,24.36
2022-08-07T20:11:09.967Z,24.30
2022-08-07T20:13:58.138Z,24.23
2022-08-07T20:16:35.037Z,24.23
2022-08-07T20:19:05.884Z,24.23
2022-08-07T20:21:41.760Z,24.23
2022-08-07T20:24:28.761Z,24.23
2022-08-07T20:26:59.182Z,24.24
2022-08-07T20:29:49.402Z,24.23
2022-08-07T20:32:25.668Z,24.22
2022-08-07T20:34:56.295Z,24.21
2022-08-07T20:37:58.378Z,24.17
2022-08-07T20:40:32.142Z,24.15
2022-08-07T20:43:14.918Z,24.12
2022-08-07T20:46:26.189Z,24.08
2022-08-07T20:48:42.221Z,24.08
2022-08-07T20:51:29.255Z,24.00
2022-08-07T20:54:12.147Z,23.93
2022-08-07T20:56:48.914Z,23.88
2022-08-07T20:59:27.259Z,23.86
2022-08-07T21:02:35.082Z,23.79
2022-08-07T21:05:16.583Z,23.72
2022-08-07T21:07:48.767Z,23.67
2022-08-07T21:10:29.850Z,23.61
2022-08-07T21:13:05.049Z,23.54
2022-08-07T21:15:48.180Z,23.50
2022-08-07T21:18:28.067Z,23.43
2022-08-07T21:20:59.500Z,23.37
2022-08-07T21:23:42.714Z,23.31
2022-08-07T21:26:48.071Z,23.24
2022-08-07T21:29:52.878Z,23.16
2022-08-07T21:32:46.585Z,23.11
2022-08-07T21:36:03.911Z,23.05
2022-08-07T21:38:27.855Z,22.98
2022-08-07T21:41:10.772Z,22.92
2022-08-07T21:44:28.645Z,22.86
2022-08-07T21:47:12.108Z,22.80
2022-08-07T21:50:02.319Z,22.71
2022-08-07T21:52:41.553Z,22.65
2022-08-07T21:55:27.900Z,22.59
2022-08-07T21:58:30.003Z,22.52
2022-08-07T22:01:16.943Z,22.45
2022-08-07T22:03:51.621Z,22.39
2022-08-07T22:06:33.831Z,22.37
2022-08-07T22:09:07.364Z,22.31
2022-08-07T22:11:52.925Z,22.28
2022-08-07T22:14:36.330Z,22.23
2022-08-07T22:17:05.115Z,22.18
2022-08-07T22:19:38.641Z,22.13
2022-08-07T22:22:20.708Z,22.07
2022-08-07T22:25:17.213Z,22.01
2022-08-07T22:28:29.812Z,21.98
2022-08-07T22:31:12.244Z,21.94
2022-08-07T22:34:13.776Z,21.88
2022-08-07T22:36:52.722Z,21.84
2022-08-07T22:39:52.910Z,21.79
2022-08-07T22:42:25.929Z,21.77
2022-08-07T22:46:04.496Z,21.73
2022-08-07T22:48:54.683Z,21.70
2022-08-07T22:51:31.912Z,21.67
2022-08-07T22:54:25.831Z,21.61
2022-08-07T22:57:17.129Z,21.57
2022-08-07T22:59:53.286Z,21.52
2022-08-07T23:02:46.703Z,21.48
2022-08-07T23:06:09.663Z,21.46
2022-08-07T23:08:58.643Z,21.42
2022-08-07T23:11:59.651Z,21.39
2022-08-07T23:14:41.046Z,21.34
2022-08-07T23:17:26.109Z,21.29
2022-08-07T23:20:51.847Z,21.22
2022-08-07T23:24:04.320Z,21.16
2022-08-07T23:26:56.288Z,21.14
2022-08-07T23:29:43.644Z,21.09
2022-08-07T23:34:20.072Z,21.06
2022-08-07T23:35:49.772Z,21.02
2022-08-07T23:38:43.375Z,20.96
2022-08-07T23:41:33.467Z,20.93
2022-08-07T23:44:37.636Z,20.87
2022-08-07T23:47:20.636Z,20.82
2022-08-07T23:50:03.687Z,20.78
2022-08-07T23:53:05.276Z,20.73
2022-08-07T23:55:53.197Z,20.70
2022-08-07T23:58:57.539Z,20.68
